createdAt,value
2022-11-14T05:00:29.621Z,101385.00
2022-11-14T05:03:00.746Z,101383.00
2022-11-14T05:05:28.922Z,101391.00
2022-11-14T05:07:57.095Z,101382.00
2022-11-14T05:10:25.230Z,101377.00
2022-11-14T05:12:55.291Z,101374.00
2022-11-14T05:15:23.897Z,101381.00
2022-11-14T05:17:53.891Z,101385.00
2022-11-14T05:20:22.105Z,101375.00
2022-11-14T05:22:55.183Z,101377.00
2022-11-14T05:25:24.343Z,101379.00
2022-11-14T05:27:52.673Z,101372.00
2022-11-14T05:30:21.588Z,101384.00
2022-11-14T05:32:49.832Z,101389.00
2022-11-14T05:35:19.326Z,101379.00
2022-11-14T05:37:47.574Z,101381.00
2022-11-14T05:40:16.971Z,101382.00
2022-11-14T05:42:45.126Z,101374.00
2022-11-14T05:45:13.365Z,101391.00
2022-11-14T05:47:41.727Z,101377.00
2022-11-14T05:50:11.201Z,101374.00
2022-11-14T05:52:40.764Z,101374.00
2022-11-14T05:55:10.198Z,101331.00
2022-11-14T05:57:38.376Z,101367.00
2022-11-14T06:00:09.220Z,101365.00
2022-11-14T06:02:37.402Z,101343.00
2022-11-14T06:05:07.673Z,101349.00
2022-11-14T06:07:35.882Z,101349.00
2022-11-14T06:10:06.075Z,101340.00
2022-11-14T06:12:34.424Z,101355.00
2022-11-14T06:15:03.526Z,101340.00
2022-11-14T06:17:31.736Z,101303.00
2022-11-14T06:19:59.931Z,101338.00
2022-11-14T06:22:28.152Z,101341.00
2022-11-14T06:24:56.355Z,101330.00
2022-11-14T06:27:25.931Z,101346.00
2022-11-14T06:29:54.101Z,101340.00
2022-11-14T06:32:22.377Z,101355.00
2022-11-14T06:34:50.610Z,101352.00
2022-11-14T06:37:18.820Z,101333.00
2022-11-14T06:39:46.999Z,101359.00
2022-11-14T06:42:17.525Z,101361.00
2022-11-14T06:44:47.087Z,101357.00
2022-11-14T06:47:15.267Z,101355.00
2022-11-14T06:49:43.835Z,101358.00
2022-11-14T06:52:12.088Z,101358.00
2022-11-14T06:54:40.238Z,101357.00
2022-11-14T06:57:08.531Z,101355.00
2022-11-14T06:59:36.687Z,101359.00
2022-11-14T07:02:06.308Z,101362.00
2022-11-14T07:04:34.948Z,101351.00
2022-11-14T07:07:03.183Z,101351.00
2022-11-14T07:09:31.456Z,101366.00
2022-11-14T07:11:59.700Z,101370.00
2022-11-14T07:14:28.691Z,101362.00
2022-11-14T07:16:57.092Z,101359.00
2022-11-14T07:19:26.901Z,101355.00
2022-11-14T07:21:55.068Z,101345.00
2022-11-14T07:24:23.567Z,101351.00
2022-11-14T07:26:51.747Z,101352.00
2022-11-14T07:29:19.838Z,101359.00
2022-11-14T07:31:47.990Z,101358.00
2022-11-14T07:34:16.150Z,101359.00
2022-11-14T07:36:46.026Z,101326.00
2022-11-14T07:39:14.358Z,101357.00
2022-11-14T07:41:42.532Z,101361.00
2022-11-14T07:44:10.958Z,101358.00
2022-11-14T07:46:39.925Z,101346.00
2022-11-14T07:49:08.106Z,101355.00
2022-11-14T07:51:37.434Z,101359.00
2022-11-14T07:54:07.180Z,101342.00
2022-11-14T07:56:35.315Z,101358.00
2022-11-14T07:59:03.525Z,101360.00
2022-11-14T08:01:31.824Z,101350.00
2022-11-14T08:04:00.147Z,101349.00
2022-11-14T08:06:28.599Z,101344.00
2022-11-14T08:08:56.913Z,101342.00
2022-11-14T08:11:40.362Z,101344.00
2022-11-14T08:14:08.972Z,101347.00
2022-11-14T08:16:37.185Z,101356.00
2022-11-14T08:19:05.347Z,101331.00
2022-11-14T08:21:33.630Z,101338.00
2022-11-14T08:24:02.028Z,101335.00
2022-11-14T08:26:34.299Z,101345.00
2022-11-14T08:29:03.884Z,101338.00
2022-11-14T08:31:32.094Z,101334.00
2022-11-14T08:34:00.279Z,101324.00
2022-11-14T08:36:28.876Z,101324.00
2022-11-14T08:39:01.611Z,101334.00
2022-11-14T08:41:32.024Z,101325.00
2022-11-14T08:44:00.182Z,101322.00
2022-11-14T08:46:28.401Z,101324.00
2022-11-14T08:48:56.689Z,101335.00
2022-11-14T08:51:24.916Z,101339.00
2022-11-14T08:53:53.116Z,101330.00
2022-11-14T08:56:21.585Z,101325.00
2022-11-14T08:58:51.064Z,101330.00
2022-11-14T09:01:19.219Z,101327.00
2022-11-14T09:03:47.585Z,101328.00
2022-11-14T09:06:16.372Z,101318.00
2022-11-14T09:08:44.504Z,101319.00
2022-11-14T09:11:15.477Z,101313.00
2022-11-14T09:13:47.226Z,101319.00
2022-11-14T09:16:16.898Z,101314.00
2022-11-14T09:18:45.102Z,101309.00
2022-11-14T09:21:13.459Z,101320.00
2022-11-14T09:23:41.776Z,101318.00
2022-11-14T09:26:11.468Z,101308.00
2022-11-14T09:28:39.735Z,101310.00
2022-11-14T09:31:11.641Z,101306.00
2022-11-14T09:33:41.416Z,101304.00
2022-11-14T09:36:15.778Z,101303.00
2022-11-14T09:38:44.480Z,101314.00
2022-11-14T09:41:26.164Z,101313.00
2022-11-14T09:44:23.947Z,101308.00
2022-11-14T09:47:02.405Z,101310.00
2022-11-14T09:49:40.428Z,101295.00
2022-11-14T09:52:22.997Z,101312.00
2022-11-14T09:54:57.313Z,101294.00
2022-11-14T09:57:27.775Z,101295.00
2022-11-14T09:59:57.475Z,101294.00
2022-11-14T10:02:41.367Z,101285.00
2022-11-14T10:05:40.916Z,101285.00
2022-11-14T10:08:30.473Z,101277.00
2022-11-14T10:11:06.959Z,101276.00
2022-11-14T10:14:23.959Z,101277.00
2022-11-14T10:17:10.968Z,101278.00
2022-11-14T10:19:52.837Z,101289.00
2022-11-14T10:22:45.351Z,101280.00
2022-11-14T10:25:27.044Z,101281.00
2022-11-14T10:28:20.544Z,101282.00
2022-11-14T10:30:58.294Z,101291.00
2022-11-14T10:33:53.272Z,101288.00
2022-11-14T10:36:46.833Z,101276.00
2022-11-14T10:39:24.379Z,101265.00
2022-11-14T10:42:03.211Z,101271.00
2022-11-14T10:44:43.043Z,101260.00
2022-11-14T10:47:17.327Z,101242.00
2022-11-14T10:49:52.196Z,101258.00
2022-11-14T10:52:27.545Z,101253.00
2022-11-14T10:55:04.392Z,101248.00
2022-11-14T10:57:34.150Z,101247.00
2022-11-14T11:00:02.349Z,101241.00
2022-11-14T11:02:52.106Z,101237.00
2022-11-14T11:05:23.686Z,101228.00
2022-11-14T11:08:36.270Z,101232.00
2022-11-14T11:11:18.535Z,101224.00
2022-11-14T11:13:56.042Z,101227.00
2022-11-14T11:16:26.600Z,101217.00
2022-11-14T11:18:54.861Z,101221.00
2022-11-14T11:21:24.684Z,101223.00
2022-11-14T11:23:55.559Z,101216.00
2022-11-14T11:26:28.310Z,101216.00
2022-11-14T11:29:07.403Z,101218.00
2022-11-14T11:31:52.720Z,101206.00
2022-11-14T11:34:26.600Z,101208.00
2022-11-14T11:37:03.825Z,101208.00
2022-11-14T11:39:41.205Z,101199.00
2022-11-14T11:42:19.407Z,101195.00
2022-11-14T11:44:54.674Z,101184.00
2022-11-14T11:47:23.707Z,101191.00
2022-11-14T11:49:54.784Z,101194.00
2022-11-14T11:52:35.435Z,101192.00
2022-11-14T11:55:18.389Z,101188.00
2022-11-14T11:57:57.822Z,101182.00
2022-11-14T12:00:26.376Z,101173.00
2022-11-14T12:02:55.888Z,101184.00
2022-11-14T12:05:35.400Z,101180.00
2022-11-14T12:08:09.576Z,101178.00
2022-11-14T12:10:43.129Z,101174.00
2022-11-14T12:13:49.947Z,101181.00
2022-11-14T12:17:00.042Z,101180.00
2022-11-14T12:20:15.733Z,101187.00
2022-11-14T12:23:13.648Z,101186.00
2022-11-14T12:26:06.666Z,101173.00
2022-11-14T12:29:02.370Z,101175.00
2022-11-14T12:31:36.312Z,101175.00
2022-11-14T12:34:15.582Z,101176.00
2022-11-14T12:36:46.708Z,101186.00
2022-11-14T12:39:26.664Z,101178.00
2022-11-14T12:42:04.227Z,101177.00
2022-11-14T12:44:39.950Z,101180.00
2022-11-14T12:47:17.754Z,101161.00
2022-11-14T12:50:06.283Z,101181.00
2022-11-14T12:52:53.964Z,101165.00
2022-11-14T12:56:08.862Z,101162.00
2022-11-14T12:59:11.855Z,101175.00
2022-11-14T13:02:00.408Z,101163.00
2022-11-14T13:04:45.506Z,101164.00
2022-11-14T13:07:34.546Z,101179.00
2022-11-14T13:10:14.838Z,101164.00
2022-11-14T13:13:15.339Z,101167.00
2022-11-14T13:16:09.817Z,101149.00
2022-11-14T13:19:12.140Z,101162.00
2022-11-14T13:22:00.553Z,101152.00
2022-11-14T13:25:12.705Z,101162.00
2022-11-14T13:31:07.189Z,101160.00
2022-11-14T13:33:44.551Z,101157.00
2022-11-14T13:36:23.444Z,101146.00
2022-11-14T13:39:24.558Z,101154.00
2022-11-14T13:42:46.610Z,101148.00
2022-11-14T13:45:56.628Z,101147.00
2022-11-14T13:49:11.298Z,101140.00
2022-11-14T13:51:44.211Z,101134.00
2022-11-14T13:54:18.017Z,101135.00
2022-11-14T13:57:04.110Z,101136.00
2022-11-14T13:59:57.929Z,101137.00
2022-11-14T14:03:05.714Z,101138.00
2022-11-14T14:06:05.874Z,101129.00
2022-11-14T14:08:58.820Z,101136.00
2022-11-14T14:11:53.040Z,101132.00
2022-11-14T14:14:48.878Z,101128.00
2022-11-14T14:17:28.622Z,101130.00
2022-11-14T14:20:17.592Z,101125.00
2022-11-14T14:23:02.685Z,101129.00
2022-11-14T14:25:43.393Z,101118.00
2022-11-14T14:28:25.258Z,101108.00
2022-11-14T14:31:05.513Z,101115.00
2022-11-14T14:33:42.489Z,101109.00
2022-11-14T14:36:25.230Z,101101.00
2022-11-14T14:39:18.575Z,101110.00
2022-11-14T14:41:48.770Z,101103.00
2022-11-14T14:44:26.407Z,101094.00
2022-11-14T14:46:56.307Z,101086.00
2022-11-14T14:49:29.116Z,101083.00
2022-11-14T14:51:58.943Z,101078.00
2022-11-14T14:54:30.759Z,101062.00
2022-11-14T14:57:01.332Z,101080.00
2022-11-14T14:59:32.018Z,101073.00
2022-11-14T15:02:00.390Z,101066.00
2022-11-14T15:04:30.939Z,101064.00
2022-11-14T15:06:59.424Z,101065.00
2022-11-14T15:09:31.313Z,101068.00
2022-11-14T15:12:02.794Z,101052.00
2022-11-14T15:14:36.307Z,101058.00
2022-11-14T15:17:05.960Z,101061.00
2022-11-14T15:19:41.924Z,101063.00
2022-11-14T15:22:26.288Z,101055.00
2022-11-14T15:25:21.742Z,101058.00
2022-11-14T15:27:54.275Z,101060.00
2022-11-14T15:30:25.806Z,101054.00
2022-11-14T15:32:57.052Z,101062.00
2022-11-14T15:35:36.120Z,101052.00
2022-11-14T15:38:42.143Z,101047.00
2022-11-14T15:41:29.683Z,101031.00
2022-11-14T15:44:08.431Z,101040.00
2022-11-14T15:46:44.367Z,101038.00
2022-11-14T15:49:23.199Z,101038.00
2022-11-14T15:51:55.937Z,101034.00
2022-11-14T15:54:31.151Z,101038.00
2022-11-14T15:57:03.188Z,101024.00
2022-11-14T15:59:32.026Z,101012.00
2022-11-14T16:02:11.194Z,101025.00
2022-11-14T16:04:44.583Z,101021.00
2022-11-14T16:07:18.208Z,101007.00
2022-11-14T16:09:47.354Z,101013.00
2022-11-14T16:12:17.082Z,101014.00
2022-11-14T16:14:45.575Z,101021.00
2022-11-14T16:17:16.217Z,101014.00
2022-11-14T16:19:45.123Z,101013.00
2022-11-14T16:22:17.818Z,101013.00
2022-11-14T16:24:46.210Z,101015.00
2022-11-14T16:27:15.742Z,101019.00
2022-11-14T16:29:44.011Z,101027.00
2022-11-14T16:32:12.455Z,101032.00
2022-11-14T16:34:40.579Z,101032.00
2022-11-14T16:37:14.251Z,101036.00
2022-11-14T16:39:42.431Z,101036.00
2022-11-14T16:42:12.475Z,101024.00
2022-11-14T16:44:46.448Z,101030.00
2022-11-14T16:47:19.780Z,101034.00
2022-11-14T16:49:47.987Z,101024.00
2022-11-14T16:52:17.058Z,101023.00
2022-11-14T16:54:45.224Z,101027.00
2022-11-14T16:57:13.774Z,101024.00
2022-11-14T16:59:43.290Z,101017.00
2022-11-14T17:02:16.588Z,101013.00
2022-11-14T17:04:45.825Z,101001.00
2022-11-14T17:07:17.725Z,101000.00
2022-11-14T17:09:50.416Z,101003.00
2022-11-14T17:12:18.601Z,101010.00
2022-11-14T17:14:48.127Z,101010.00
2022-11-14T17:17:16.262Z,101009.00
2022-11-14T17:19:46.064Z,101019.00
2022-11-14T17:22:15.218Z,101019.00
2022-11-14T17:24:44.238Z,101023.00
2022-11-14T17:27:13.766Z,101014.00
2022-11-14T17:29:42.023Z,101011.00
2022-11-14T17:32:11.582Z,101016.00
2022-11-14T17:34:39.744Z,101013.00
2022-11-14T17:37:07.872Z,101011.00
2022-11-14T17:39:36.051Z,101011.00
2022-11-14T17:42:04.296Z,101009.00
2022-11-14T17:44:32.453Z,101015.00
2022-11-14T17:47:00.974Z,101003.00
2022-11-14T17:49:31.952Z,101000.00
2022-11-14T17:52:00.097Z,101004.00
2022-11-14T17:54:28.292Z,100986.00
2022-11-14T17:56:57.471Z,100998.00
2022-11-14T17:59:25.683Z,100984.00
2022-11-14T18:01:55.906Z,100985.00
2022-11-14T18:04:24.148Z,100984.00
2022-11-14T18:06:54.239Z,100989.00
2022-11-14T18:09:22.943Z,100994.00
2022-11-14T18:11:51.106Z,100987.00
2022-11-14T18:14:19.292Z,100991.00
2022-11-14T18:17:11.171Z,100989.00
2022-11-14T18:19:36.667Z,100979.00
2022-11-14T18:22:07.187Z,100992.00
2022-11-14T18:24:35.324Z,100984.00
2022-11-14T18:27:03.575Z,100981.00
2022-11-14T18:29:31.691Z,100981.00
2022-11-14T18:31:59.817Z,100985.00
2022-11-14T18:34:28.108Z,100974.00
2022-11-14T18:36:56.265Z,100961.00
2022-11-14T18:39:26.462Z,100957.00
2022-11-14T18:41:54.601Z,100954.00
2022-11-14T18:44:24.182Z,100945.00
2022-11-14T18:46:52.486Z,100943.00
2022-11-14T18:49:21.022Z,100937.00
2022-11-14T18:51:49.333Z,100939.00
2022-11-14T18:54:18.834Z,100946.00
2022-11-14T18:56:48.380Z,100948.00
2022-11-14T18:59:16.519Z,100944.00
2022-11-14T19:01:45.009Z,100940.00
2022-11-14T19:04:17.156Z,100938.00
2022-11-14T19:06:45.358Z,100927.00
2022-11-14T19:09:18.250Z,100937.00
2022-11-14T19:12:05.234Z,100930.00
2022-11-14T19:14:33.918Z,100937.00
2022-11-14T19:17:02.546Z,100941.00
2022-11-14T19:19:31.144Z,100930.00
2022-11-14T19:21:59.386Z,100936.00
2022-11-14T19:24:27.506Z,100935.00
2022-11-14T19:26:57.698Z,100933.00
2022-11-14T19:29:25.829Z,100922.00
2022-11-14T19:31:54.539Z,100926.00
2022-11-14T19:34:22.700Z,100926.00
2022-11-14T19:36:59.762Z,100932.00
2022-11-14T19:39:28.731Z,100927.00
2022-11-14T19:41:58.367Z,100925.00
2022-11-14T19:44:26.723Z,100915.00
2022-11-14T19:46:54.863Z,100907.00
2022-11-14T19:49:23.056Z,100913.00
2022-11-14T19:51:51.286Z,100908.00
2022-11-14T19:54:19.501Z,100902.00
2022-11-14T19:56:47.622Z,100913.00
2022-11-14T19:59:21.562Z,100908.00
2022-11-14T20:01:55.136Z,100914.00
2022-11-14T20:04:24.007Z,100905.00
2022-11-14T20:06:52.641Z,100902.00
2022-11-14T20:09:20.924Z,100904.00
2022-11-14T20:11:49.309Z,100902.00
2022-11-14T20:14:19.474Z,100897.00
2022-11-14T20:16:47.762Z,100891.00
2022-11-14T20:19:16.428Z,100898.00
2022-11-14T20:21:44.654Z,100887.00
2022-11-14T20:24:15.338Z,100892.00
2022-11-14T20:26:43.606Z,100902.00
2022-11-14T20:29:11.850Z,100898.00
2022-11-14T20:31:41.435Z,100889.00
2022-11-14T20:34:12.583Z,100891.00
2022-11-14T20:37:09.216Z,100895.00
2022-11-14T20:39:29.470Z,100899.00
2022-11-14T20:41:57.703Z,100896.00
2022-11-14T20:44:26.282Z,100894.00
2022-11-14T20:46:56.873Z,100884.00
2022-11-14T20:49:25.097Z,100896.00
2022-11-14T20:51:53.384Z,100902.00
2022-11-14T20:54:21.646Z,100887.00
2022-11-14T20:56:49.855Z,100884.00
2022-11-14T20:59:18.025Z,100897.00
2022-11-14T21:01:46.293Z,100891.00
2022-11-14T21:04:15.854Z,100896.00
2022-11-14T21:06:44.126Z,100877.00
2022-11-14T21:09:12.396Z,100885.00
2022-11-14T21:11:40.582Z,100880.00
2022-11-14T21:14:09.128Z,100886.00
2022-11-14T21:16:40.599Z,100882.00
2022-11-14T21:19:08.982Z,100874.00
2022-11-14T21:21:39.568Z,100875.00
2022-11-14T21:24:08.758Z,100880.00
2022-11-14T21:26:39.949Z,100872.00
2022-11-14T21:29:12.569Z,100884.00
2022-11-14T21:31:44.484Z,100872.00
2022-11-14T21:34:15.286Z,100866.00
2022-11-14T21:36:46.910Z,100870.00
2022-11-14T21:39:17.691Z,100855.00
2022-11-14T21:41:48.366Z,100860.00
2022-11-14T21:44:18.891Z,100845.00
2022-11-14T21:46:48.572Z,100844.00
2022-11-14T21:49:17.624Z,100851.00
2022-11-14T21:51:48.314Z,100855.00
2022-11-14T21:54:16.668Z,100828.00
2022-11-14T21:56:44.815Z,100847.00
2022-11-14T21:59:18.579Z,100850.00
